Tuesday, July 17, 2018, 12:45 AM CDT
Back to Local

KAAO, Wichita Jabara Airport

Location: Wichita, KS, United States Lat: 37.75
Local Time: 12:45 AM CDT ( 5:45 GMT) Lon: -97.217
Time Zone: US/Central Elev: 1420 ft

Show me the last for .
Show Decoded

2018-07-16 23:54 METAR KAAO 170454Z AUTO 11003KT 10SM CLR 24/21 A3004 RMK AO2 SLP158 T02440206 =
2018-07-16 22:54 METAR KAAO 170354Z AUTO 12003KT 10SM CLR 25/21 A3004 RMK AO2 SLP160 T02500206 =
2018-07-16 21:54 METAR KAAO 170254Z AUTO 13004KT 10SM CLR 27/20 A3004 RMK AO2 SLP158 T02670200
                 53012 =
2018-07-16 20:54 METAR KAAO 170154Z AUTO 00000KT 10SM CLR 28/19 A3002 RMK AO2 SLP152 T02780194 =
2018-07-16 19:54 METAR KAAO 170054Z AUTO 07006KT 10SM CLR 30/18 A3001 RMK AO2 SLP148 T03000183 =
2018-07-16 18:54 METAR KAAO 162354Z AUTO 07008KT 10SM CLR 32/19 A3000 RMK AO2 SLP143 T03220189
                 10333 20283 56009 =
2018-07-16 17:54 METAR KAAO 162254Z AUTO 09004KT 10SM CLR 32/19 A3001 RMK AO2 SLP145 T03220194 =
2018-07-16 16:54 METAR KAAO 162154Z AUTO 08005KT 10SM CLR 33/19 A3002 RMK AO2 SLP149 T03280194 =
2018-07-16 14:54 METAR KAAO 161954Z AUTO 09006KT 10SM CLR 31/19 A3004 RMK AO2 SLP158 T03110194 =
2018-07-16 13:54 METAR KAAO 161854Z AUTO 09007KT 10SM CLR 29/21 A3006 RMK AO2 SLP165 T02940211 =
2018-07-16 12:54 METAR KAAO 161754Z AUTO VRB03KT 10SM FEW042 FEW065 28/22 A3008 RMK AO2 SLP172
                 60001 T02830217 10283 20217 53004 =
2018-07-16 11:54 METAR KAAO 161654Z AUTO 12005KT 10SM CLR 27/21 A3007 RMK AO2 RAE05 SLP171 P0000
                 T02670211 =
2018-07-16 10:54 METAR KAAO 161554Z AUTO 19008KT 8SM RA SCT027 BKN070 OVC110 24/22 A3006 RMK AO2
                 RAB51 SLP168 P0001 T02390217 =
2018-07-16 09:54 METAR KAAO 161454Z AUTO 08003KT 10SM BKN075 BKN090 23/22 A3007 RMK AO2 SLP170
                 60000 T02280217 51006 =
2018-07-16 09:22 METAR KAAO 161422Z AUTO 02006KT 10SM BKN070 OVC090 23/21 A3007 RMK AO2 LTG DSNT
                 S T02280206 =
2018-07-16 08:54 METAR KAAO 161354Z AUTO 01010G19KT 10SM VCTS FEW075 BKN090 BKN110 23/21 A3006
                 RMK AO2 LTG DSNT NW RAB1255E44 SLP168 P0000 T02280211 =
2018-07-16 08:50 METAR KAAO 161350Z AUTO 04011G19KT 10SM VCTS FEW037 SCT075 BKN095 22/21 A3006
                 RMK AO2 LTG DSNT NW-E RAB1255E44 P0000 =
2018-07-16 08:43 METAR KAAO 161343Z AUTO 03012KT 10SM -RA FEW031 SCT075 BKN090 22/21 A3006 RMK
                 AO2 LTG DSNT N-E RAB1255 PRESFR P0000 T02220211 =
2018-07-16 08:28 METAR KAAO 161328Z AUTO 35012KT 10SM VCTS -RA FEW031 SCT075 BKN100 22/21 A3008
                 RMK AO2 LTG DSNT NW-NE RAB1255 P0000 T02170206 =
2018-07-16 07:54 METAR KAAO 161254Z AUTO 35007KT 10SM BKN075 BKN090 22/21 A3005 RMK AO2 LTG DSNT
                 NW-E RAB32E46 TSB15E48 SLP162 P0000 T02170211 =
2018-07-16 07:34 METAR KAAO 161234Z AUTO 02008KT 10SM -TSRA BKN085 OVC110 22/21 A3005 RMK AO2 LTG
                 DSNT ALQDS RAB32 TSB15 P0000 T02170206 =
2018-07-16 07:26 METAR KAAO 161226Z AUTO 02010KT 1 3/4SM TS BR BKN080 OVC095 22/21 A3006 RMK AO2
                 LTG DSNT ALQDS TSB15 T02220206 =
2018-07-16 07:18 METAR KAAO 161218Z AUTO 02013KT 2 1/2SM TS BR SCT080 BKN090 OVC110 23/21 A3005
                 RMK AO2 LTG DSNT ALQDS TSB15 T02280206 =
2018-07-16 07:03 METAR KAAO 161203Z AUTO 02011G17KT 10SM VCTS BKN080 BKN110 23/21 A3005 RMK AO2
                 LTG DSNT ALQDS T02280211 =
2018-07-16 06:54 METAR KAAO 161154Z AUTO 02010G18KT 10SM BKN080 BKN090 23/21 A3005 RMK AO2 LTG
                 DSNT ALQDS SLP163 T02280211 10244 20222 51011 =
2018-07-16 06:50 METAR KAAO 161150Z AUTO 03010G18KT 10SM FEW065 BKN090 23/21 A3005 RMK AO2 LTG
                 DSNT ALQDS =
2018-07-16 06:06 METAR KAAO 161106Z AUTO 02006KT 10SM VCTS FEW090 SCT110 23/21 A3003 RMK AO2 LTG
                 DSNT N AND NW T02280211 =
2018-07-16 05:54 METAR KAAO 161054Z AUTO 02005KT 10SM CLR 23/21 A3002 RMK AO2 LTG DSNT W-N SLP152
                 T02280211 =
2018-07-16 04:54 METAR KAAO 160954Z AUTO 01004KT 10SM FEW065 23/21 A3002 RMK AO2 LTG DSNT SW
                 SLP149 T02330211 =
2018-07-16 03:54 METAR KAAO 160854Z AUTO 00000KT 10SM FEW120 23/22 A3000 RMK AO2 SLP142 T02280222
                 56007 =
2018-07-16 02:54 METAR KAAO 160754Z AUTO 13004KT 10SM CLR 23/22 A3000 RMK AO2 SLP142 T02330217 =
2018-07-16 01:54 METAR KAAO 160654Z AUTO 12003KT 10SM CLR 23/23 A3001 RMK AO2 SLP147 T02330228 =
2018-07-16 00:54 METAR KAAO 160554Z AUTO 09003KT 10SM CLR 23/23 A3002 RMK AO2 SLP149 T02330228
                 10278 20233 403610222 50008 =

Support USWX by starting your Amazon purchase here.